Time;durP1;ratioP1;P1;durP2;ratioP2;P2;SDS_P1;SDS_P2;PMS_P1;PMS_P2;Temp;Humidity;BMP_temperature;BMP_pressure;BME280_temperature;BME280_humidity;BME280_pressure;Samples;Min_cycle;Max_cycle;Signal;HPM_P1;HPM_P2
2021/06/12 00:01:01;;;;;;;1.88;1.40;;;19.40;99.90;;;;;;4101376;28;20215;-88
2021/06/12 00:03:03;;;;;;;4.25;1.77;;;19.50;99.90;;;;;;4101515;28;20300;-88
2021/06/12 00:05:06;;;;;;;2.85;1.88;;;19.50;99.90;;;;;;4117520;28;20269;-87
2021/06/12 00:07:06;;;;;;;4.75;1.52;;;19.40;99.90;;;;;;4101758;28;20607;-88
2021/06/12 00:09:07;;;;;;;3.92;1.65;;;19.40;99.90;;;;;;4117687;28;20182;-88
2021/06/12 00:11:08;;;;;;;5.45;2.33;;;19.40;99.90;;;;;;4101320;28;20257;-89
2021/06/12 00:13:09;;;;;;;2.50;1.45;;;19.40;99.90;;;;;;4101180;28;20224;-88
2021/06/12 00:15:11;;;;;;;4.55;1.90;;;19.40;99.90;;;;;;4101517;28;20262;-87
2021/06/12 00:17:12;;;;;;;2.50;1.58;;;19.30;99.90;;;;;;4101603;28;20178;-88
2021/06/12 00:19:13;;;;;;;2.83;1.63;;;19.20;99.90;;;;;;4117488;28;20170;-88
2021/06/12 00:21:14;;;;;;;5.85;1.77;;;19.20;99.90;;;;;;4101387;28;20214;-87
2021/06/12 00:23:16;;;;;;;4.35;2.17;;;19.20;99.90;;;;;;4117460;28;20186;-87
2021/06/12 00:25:19;;;;;;;5.10;1.60;;;19.20;99.90;;;;;;4101359;28;20217;-88
2021/06/12 00:27:20;;;;;;;4.65;2.05;;;19.20;99.90;;;;;;4101279;28;20298;-87
2021/06/12 00:29:21;;;;;;;4.75;1.70;;;19.10;99.90;;;;;;4117149;28;20178;-88
2021/06/12 00:31:22;;;;;;;4.43;1.80;;;19.00;99.90;;;;;;4101062;28;20182;-87
2021/06/12 00:33:22;;;;;;;4.28;1.80;;;19.00;99.90;;;;;;4101322;28;20636;-87
2021/06/12 00:35:24;;;;;;;2.15;1.70;;;19.00;99.90;;;;;;4101136;28;20270;-87
2021/06/12 00:37:25;;;;;;;3.40;1.60;;;18.90;99.90;;;;;;4117165;28;20225;-88
2021/06/12 00:39:26;;;;;;;5.30;2.08;;;18.90;99.90;;;;;;4116999;28;20643;-88
2021/06/12 00:41:26;;;;;;;3.30;1.92;;;18.90;99.90;;;;;;4100770;28;20221;-87
2021/06/12 00:43:27;;;;;;;3.15;2.00;;;18.80;99.90;;;;;;4100797;28;20316;-88
2021/06/12 00:45:30;;;;;;;3.95;2.08;;;18.90;99.90;;;;;;4100942;28;20186;-87
2021/06/12 00:47:31;;;;;;;3.85;2.20;;;18.90;99.90;;;;;;4101054;28;20171;-87
2021/06/12 00:49:32;;;;;;;6.72;2.28;;;18.80;99.90;;;;;;4117020;28;20274;-87
2021/06/12 00:51:32;;;;;;;3.60;2.00;;;18.80;99.90;;;;;;4101019;28;20175;-88
2021/06/12 00:53:42;;;;;;;5.57;1.67;;;18.70;99.90;;;;;;4100922;28;20198;-88
2021/06/12 00:55:43;;;;;;;3.13;1.80;;;18.70;99.90;;;;;;4100728;29;20233;-87
2021/06/12 00:57:46;;;;;;;2.90;1.80;;;18.80;99.90;;;;;;4117044;28;20254;-88
2021/06/12 00:59:47;;;;;;;4.78;2.15;;;18.80;99.90;;;;;;4116870;28;20174;-87
2021/06/12 01:01:48;;;;;;;3.35;2.20;;;18.80;99.90;;;;;;4116982;28;20293;-88
2021/06/12 01:03:49;;;;;;;3.40;1.92;;;18.60;99.90;;;;;;4100788;28;20197;-88
2021/06/12 01:05:50;;;;;;;4.18;2.17;;;18.50;99.90;;;;;;4116853;28;20182;-87
2021/06/12 01:07:51;;;;;;;4.75;1.90;;;18.50;99.90;;;;;;4116744;28;20186;-87
2021/06/12 01:09:52;;;;;;;3.63;2.05;;;18.50;99.90;;;;;;4100598;28;20197;-87
2021/06/12 01:12:17;;;;;;;3.20;2.20;;;18.40;99.90;;;;;;4100376;28;20201;-88
2021/06/12 01:14:21;;;;;;;3.15;1.88;;;18.30;99.90;;;;;;4100522;28;20230;-87
2021/06/12 01:16:42;;;;;;;6.60;2.33;;;18.30;99.90;;;;;;4100607;28;20167;-87
2021/06/12 01:18:45;;;;;;;5.28;2.20;;;18.20;99.90;;;;;;4100774;28;20182;-87
2021/06/12 01:21:05;;;;;;;3.20;2.20;;;18.10;99.90;;;;;;4116393;28;20264;-87
2021/06/12 01:23:38;;;;;;;5.00;2.40;;;18.10;99.90;;;;;;4100452;29;20199;-87
2021/06/12 01:25:53;;;;;;;4.32;2.63;;;18.10;99.90;;;;;;4116473;28;20592;-88
2021/06/12 01:28:15;;;;;;;4.85;2.20;;;18.00;99.90;;;;;;4117419;28;20253;-87
2021/06/12 01:30:24;;;;;;;4.28;2.42;;;18.00;99.90;;;;;;4116265;28;20189;-88
2021/06/12 01:32:26;;;;;;;5.95;2.28;;;17.90;99.90;;;;;;4100293;28;20198;-87
2021/06/12 01:34:28;;;;;;;5.22;2.55;;;17.90;99.90;;;;;;4116184;28;20257;-87
2021/06/12 01:36:30;;;;;;;6.15;2.28;;;17.80;99.90;;;;;;4116044;28;20298;-87
2021/06/12 01:38:33;;;;;;;4.70;2.80;;;17.80;99.90;;;;;;4100216;28;20178;-88
2021/06/12 01:40:37;;;;;;;5.25;3.33;;;18.10;99.90;;;;;;4100292;28;20198;-87
2021/06/12 01:42:43;;;;;;;5.93;2.80;;;18.20;99.90;;;;;;4116157;28;20205;-87
2021/06/12 01:44:46;;;;;;;6.22;2.92;;;18.10;99.90;;;;;;4100139;28;20190;-87
2021/06/12 01:46:49;;;;;;;4.72;2.83;;;18.00;99.90;;;;;;4137469;23;20213;-90
2021/06/12 01:48:50;;;;;;;5.78;2.58;;;18.00;99.90;;;;;;4116098;28;20170;-92
2021/06/12 01:50:52;;;;;;;5.13;3.25;;;17.90;99.90;;;;;;4132274;28;20209;-90
2021/06/12 01:52:55;;;;;;;7.78;3.05;;;17.90;99.90;;;;;;4132468;28;20277;-89
2021/06/12 01:54:57;;;;;;;5.10;3.10;;;17.90;99.90;;;;;;4132464;28;20178;-91
2021/06/12 01:56:59;;;;;;;7.85;3.38;;;17.90;99.90;;;;;;4132431;28;20166;-92
2021/06/12 01:59:01;;;;;;;4.97;3.13;;;17.80;99.90;;;;;;4132287;28;20276;-90
2021/06/12 02:01:02;;;;;;;4.28;2.83;;;17.60;99.90;;;;;;4132119;28;20170;-89
2021/06/12 02:03:04;;;;;;;5.65;3.40;;;17.60;99.90;;;;;;4115903;28;20226;-90
2021/06/12 02:05:06;;;;;;;8.02;3.70;;;17.60;99.90;;;;;;4132159;28;20252;-89
2021/06/12 02:07:08;;;;;;;5.60;3.47;;;17.60;99.90;;;;;;4116046;28;20185;-89
2021/06/12 02:09:10;;;;;;;5.20;3.58;;;17.60;99.90;;;;;;4116017;28;20170;-92
2021/06/12 02:11:13;;;;;;;7.60;3.92;;;17.70;99.90;;;;;;4116079;28;20217;-92
2021/06/12 02:13:17;;;;;;;7.40;4.38;;;17.60;99.90;;;;;;4115868;28;20575;-93
2021/06/12 02:15:18;;;;;;;6.28;3.95;;;17.70;99.90;;;;;;4115727;28;20195;-89
2021/06/12 02:17:20;;;;;;;5.97;4.30;;;17.60;99.90;;;;;;4115966;28;20582;-92
2021/06/12 02:19:22;;;;;;;6.50;3.88;;;17.60;99.90;;;;;;4116081;28;20178;-89
2021/06/12 02:21:23;;;;;;;7.55;4.22;;;17.60;99.90;;;;;;4115808;28;20170;-88
2021/06/12 02:23:27;;;;;;;8.68;4.53;;;17.70;99.90;;;;;;4115776;28;20260;-88
2021/06/12 02:25:27;;;;;;;7.90;4.53;;;17.60;99.90;;;;;;4115890;28;20206;-89
2021/06/12 02:27:29;;;;;;;7.90;4.85;;;17.60;99.90;;;;;;4116001;28;20178;-94
2021/06/12 02:29:30;;;;;;;8.43;5.45;;;17.50;99.90;;;;;;4115876;28;20178;-90
2021/06/12 02:31:37;;;;;;;9.65;4.68;;;17.60;99.90;;;;;;4115531;28;20252;-93
2021/06/12 02:33:38;;;;;;;9.55;4.75;;;17.60;99.90;;;;;;4115940;28;20169;-88
2021/06/12 02:35:39;;;;;;;7.97;5.53;;;17.60;99.90;;;;;;4115861;28;20658;-88
2021/06/12 02:37:41;;;;;;;11.35;5.97;;;17.70;99.90;;;;;;4115904;28;20177;-90
2021/06/12 02:39:42;;;;;;;8.60;5.93;;;17.80;99.90;;;;;;4115940;28;20272;-89
2021/06/12 02:41:43;;;;;;;9.23;6.50;;;17.70;99.90;;;;;;4115980;28;20194;-89
2021/06/12 02:43:43;;;;;;;10.52;6.80;;;17.60;99.90;;;;;;4115869;28;20186;-89
2021/06/12 02:45:44;;;;;;;11.15;6.32;;;17.50;99.90;;;;;;4115947;28;20527;-93
2021/06/12 02:47:52;;;;;;;13.43;7.63;;;17.60;99.90;;;;;;4115774;28;20185;-88
2021/06/12 02:49:56;;;;;;;10.13;7.88;;;17.60;99.90;;;;;;4115776;28;20184;-92
2021/06/12 02:52:00;;;;;;;12.93;7.90;;;17.80;99.90;;;;;;4115821;28;20206;-89
2021/06/12 02:54:01;;;;;;;15.13;8.65;;;17.70;99.90;;;;;;4115714;28;20170;-89
2021/06/12 02:56:04;;;;;;;11.80;8.05;;;17.80;99.90;;;;;;4115717;28;20174;-89
2021/06/12 02:58:06;;;;;;;13.70;9.02;;;17.80;99.90;;;;;;4115818;28;20166;-89
2021/06/12 03:00:08;;;;;;;15.60;9.02;;;17.90;99.90;;;;;;4115405;28;20175;-89
2021/06/12 03:02:10;;;;;;;16.38;10.48;;;17.80;99.90;;;;;;4115597;28;20190;-89
2021/06/12 03:04:14;;;;;;;15.88;9.80;;;17.80;99.90;;;;;;4115570;28;20543;-89
2021/06/12 03:06:19;;;;;;;17.08;10.80;;;17.70;99.90;;;;;;4115633;28;20297;-90
2021/06/12 03:08:22;;;;;;;20.40;11.30;;;17.80;99.90;;;;;;4115674;28;20174;-92
2021/06/12 03:10:26;;;;;;;19.35;10.90;;;17.80;99.90;;;;;;4115587;28;20229;-91
2021/06/12 03:12:30;;;;;;;16.52;10.70;;;17.80;99.90;;;;;;4115504;28;20194;-89
2021/06/12 03:14:32;;;;;;;14.77;10.45;;;17.70;99.90;;;;;;4131699;28;20170;-89
2021/06/12 03:16:33;;;;;;;19.17;11.57;;;17.70;99.90;;;;;;4115785;28;20181;-89
2021/06/12 03:18:35;;;;;;;16.98;11.52;;;17.70;99.90;;;;;;4115757;28;20177;-89
2021/06/12 03:20:37;;;;;;;19.67;12.10;;;17.80;99.90;;;;;;4115350;28;20170;-91
2021/06/12 03:22:39;;;;;;;17.35;11.40;;;17.70;99.90;;;;;;4115192;28;20232;-89
2021/06/12 03:24:41;;;;;;;17.73;12.13;;;17.70;99.90;;;;;;4115687;28;20174;-89
2021/06/12 03:26:42;;;;;;;17.90;11.90;;;17.70;99.90;;;;;;4117032;28;20197;-91
2021/06/12 03:28:43;;;;;;;22.08;12.52;;;17.50;99.90;;;;;;4134534;28;20237;-89
2021/06/12 03:30:44;;;;;;;26.92;13.30;;;17.60;99.90;;;;;;4118085;28;20217;-93
2021/06/12 03:32:45;;;;;;;20.10;13.40;;;17.80;99.90;;;;;;4117980;28;20721;-89
2021/06/12 03:34:47;;;;;;;24.75;14.02;;;17.80;99.90;;;;;;4118223;28;20692;-93
2021/06/12 03:36:49;;;;;;;21.13;13.93;;;17.70;99.90;;;;;;4118385;28;20241;-89
2021/06/12 03:38:50;;;;;;;20.15;13.05;;;17.70;99.90;;;;;;4134323;28;20174;-89
2021/06/12 03:40:51;;;;;;;27.33;14.80;;;17.60;99.90;;;;;;4118315;28;20178;-89
2021/06/12 03:42:54;;;;;;;22.98;14.18;;;17.60;99.90;;;;;;4118389;28;20190;-89
2021/06/12 03:44:56;;;;;;;23.02;14.75;;;17.60;99.90;;;;;;4118223;28;20178;-90
2021/06/12 03:46:58;;;;;;;22.02;13.73;;;17.50;99.90;;;;;;4118065;28;20217;-92
2021/06/12 03:48:59;;;;;;;22.65;14.10;;;17.50;99.90;;;;;;4134162;28;20185;-89
2021/06/12 03:51:01;;;;;;;24.65;12.95;;;17.40;99.90;;;;;;4117886;28;20206;-89
2021/06/12 03:53:04;;;;;;;20.63;12.70;;;17.40;99.90;;;;;;4117859;28;20284;-90
2021/06/12 03:55:06;;;;;;;21.90;13.00;;;17.40;99.90;;;;;;4117924;28;20170;-90
2021/06/12 03:57:07;;;;;;;19.65;11.93;;;17.50;99.90;;;;;;4134292;28;20169;-90
2021/06/12 03:59:08;;;;;;;20.90;12.65;;;17.50;99.90;;;;;;4117968;28;20216;-89
2021/06/12 04:01:14;;;;;;;19.65;12.32;;;17.50;99.90;;;;;;4117695;28;20174;-89
2021/06/12 04:03:15;;;;;;;23.95;13.13;;;17.40;99.90;;;;;;4117936;28;20257;-92
2021/06/12 04:05:17;;;;;;;23.48;13.65;;;17.40;99.90;;;;;;4133825;28;20359;-89
2021/06/12 04:07:18;;;;;;;27.45;14.43;;;17.30;99.90;;;;;;4117690;28;20232;-89
2021/06/12 04:09:18;;;;;;;22.00;13.93;;;17.30;99.90;;;;;;4133761;28;20182;-89
2021/06/12 04:11:19;;;;;;;26.35;14.40;;;17.40;99.90;;;;;;4117230;28;20217;-89
2021/06/12 04:13:20;;;;;;;25.38;14.55;;;17.60;99.90;;;;;;4117790;28;20209;-88
2021/06/12 04:15:21;;;;;;;22.25;13.85;;;17.50;99.90;;;;;;4117559;28;20174;-89
2021/06/12 04:17:21;;;;;;;20.85;13.05;;;17.50;99.90;;;;;;4117744;28;20206;-89
2021/06/12 04:19:22;;;;;;;24.60;12.93;;;17.40;99.90;;;;;;4117445;28;20176;-90
2021/06/12 04:21:23;;;;;;;20.17;13.18;;;17.40;99.90;;;;;;4133433;28;20181;-93
2021/06/12 04:23:24;;;;;;;21.55;13.70;;;17.40;99.90;;;;;;4133594;28;20641;-91
2021/06/12 04:25:24;;;;;;;26.83;14.98;;;17.40;99.90;;;;;;4117503;28;20178;-88
2021/06/12 04:27:25;;;;;;;27.42;14.18;;;17.50;99.90;;;;;;4133433;28;20181;-89
2021/06/12 04:29:26;;;;;;;22.90;13.85;;;17.70;99.90;;;;;;4117600;28;20217;-89
2021/06/12 04:31:26;;;;;;;25.58;13.73;;;17.80;99.90;;;;;;4133329;28;20212;-91
2021/06/12 04:33:27;;;;;;;24.23;14.63;;;17.90;99.90;;;;;;4117401;28;20178;-88
2021/06/12 04:35:30;;;;;;;25.13;14.23;;;18.00;99.90;;;;;;4117601;28;20178;-89
2021/06/12 04:37:31;;;;;;;25.33;14.55;;;18.10;99.90;;;;;;4117100;28;20892;-89
2021/06/12 04:39:31;;;;;;;23.08;14.82;;;18.20;99.90;;;;;;4117192;28;20592;-88
2021/06/12 04:41:32;;;;;;;23.73;14.82;;;18.20;99.90;;;;;;4117107;28;20268;-89
2021/06/12 04:43:33;;;;;;;23.20;13.40;;;18.30;99.90;;;;;;4117158;28;20171;-88
2021/06/12 04:45:34;;;;;;;26.25;15.55;;;18.20;99.90;;;;;;4133239;28;20534;-90
2021/06/12 04:47:36;;;;;;;21.30;14.65;;;18.30;99.90;;;;;;4117009;28;20192;-89
2021/06/12 04:49:37;;;;;;;24.60;14.50;;;18.30;99.90;;;;;;4133171;28;20680;-89
2021/06/12 04:51:37;;;;;;;23.08;14.52;;;18.20;99.90;;;;;;4133001;28;20248;-89
2021/06/12 04:53:38;;;;;;;25.63;14.82;;;18.30;99.90;;;;;;4117224;28;20611;-89
2021/06/12 04:55:39;;;;;;;26.17;15.32;;;18.50;99.90;;;;;;4116657;28;20170;-89
2021/06/12 04:57:40;;;;;;;23.35;14.27;;;18.50;99.90;;;;;;4132905;28;20178;-90
2021/06/12 04:59:41;;;;;;;24.38;14.90;;;18.50;99.90;;;;;;4133049;28;20259;-89
2021/06/12 05:01:42;;;;;;;24.70;15.70;;;18.50;99.90;;;;;;4116689;28;20713;-88
2021/06/12 05:03:42;;;;;;;27.58;16.58;;;18.60;99.90;;;;;;4116852;28;20253;-89
2021/06/12 05:05:43;;;;;;;23.20;14.93;;;18.60;99.90;;;;;;4117054;28;20178;-89
2021/06/12 05:07:44;;;;;;;20.40;14.10;;;18.50;99.90;;;;;;4117010;28;20257;-89
2021/06/12 05:09:44;;;;;;;25.63;16.33;;;18.40;99.90;;;;;;4116685;28;20178;-89
2021/06/12 05:11:45;;;;;;;27.98;16.67;;;18.50;99.90;;;;;;4116572;28;20209;-89
2021/06/12 05:13:46;;;;;;;23.42;15.45;;;18.30;99.90;;;;;;4116505;28;20181;-87
2021/06/12 05:15:47;;;;;;;25.55;14.90;;;18.40;99.90;;;;;;4116589;28;20167;-89
2021/06/12 05:17:48;;;;;;;27.23;14.55;;;18.40;99.90;;;;;;4116679;28;20186;-89
2021/06/12 05:19:49;;;;;;;26.92;15.45;;;18.60;99.90;;;;;;4116695;28;20238;-90
2021/06/12 05:21:50;;;;;;;26.83;16.20;;;18.70;99.90;;;;;;4116687;28;20202;-89
2021/06/12 05:23:51;;;;;;;22.63;15.40;;;18.70;99.90;;;;;;4116715;28;20174;-89
2021/06/12 05:25:52;;;;;;;23.63;16.13;;;18.70;99.90;;;;;;4116913;28;20186;-89
2021/06/12 05:27:52;;;;;;;26.67;16.98;;;18.70;99.90;;;;;;4132874;28;20579;-89
2021/06/12 05:29:53;;;;;;;28.45;16.85;;;18.80;99.90;;;;;;4116399;28;20224;-88
2021/06/12 05:31:54;;;;;;;26.48;16.15;;;18.80;99.90;;;;;;4132536;28;20271;-89
2021/06/12 05:33:54;;;;;;;24.58;16.27;;;18.90;99.90;;;;;;4116381;28;20186;-88
2021/06/12 05:35:58;;;;;;;24.70;16.77;;;19.00;99.90;;;;;;4116187;28;20174;-89
2021/06/12 05:38:00;;;;;;;26.20;16.90;;;19.00;99.90;;;;;;4116242;28;20182;-90
2021/06/12 05:40:01;;;;;;;23.95;17.02;;;19.00;99.90;;;;;;4132363;28;20675;-90
2021/06/12 05:42:02;;;;;;;24.65;16.85;;;19.00;99.90;;;;;;4116325;28;20205;-88
2021/06/12 05:44:03;;;;;;;26.27;16.50;;;19.00;99.90;;;;;;4116320;28;20176;-89
2021/06/12 05:46:04;;;;;;;26.42;16.52;;;18.90;99.90;;;;;;4132155;28;20205;-88
2021/06/12 05:48:05;;;;;;;24.23;16.17;;;18.80;99.90;;;;;;4115717;28;20190;-88
2021/06/12 05:50:07;;;;;;;28.25;17.20;;;18.90;99.90;;;;;;4115813;28;20192;-89
2021/06/12 05:52:08;;;;;;;23.05;15.50;;;18.80;99.90;;;;;;4132120;28;20193;-89
2021/06/12 05:54:08;;;;;;;26.33;17.00;;;18.80;99.90;;;;;;4132120;28;20178;-89
2021/06/12 05:56:09;;;;;;;23.55;16.08;;;19.00;99.90;;;;;;4116333;28;20178;-89
2021/06/12 05:58:10;;;;;;;23.85;15.15;;;19.00;99.90;;;;;;4132113;28;20180;-89
2021/06/12 06:00:12;;;;;;;24.83;17.10;;;19.10;99.90;;;;;;4116152;28;20635;-91
2021/06/12 06:02:16;;;;;;;25.67;15.85;;;19.10;99.90;;;;;;4132157;28;20194;-95
2021/06/12 06:04:17;;;;;;;28.25;16.75;;;19.10;99.90;;;;;;4116192;28;20558;-89
2021/06/12 06:06:18;;;;;;;21.48;15.20;;;19.20;99.90;;;;;;4116142;28;20220;-92
2021/06/12 06:08:19;;;;;;;24.50;15.20;;;19.30;99.90;;;;;;4116146;28;20590;-92
2021/06/12 06:10:20;;;;;;;26.42;14.77;;;19.40;99.90;;;;;;4115966;28;20205;-92
2021/06/12 06:12:20;;;;;;;24.77;16.25;;;19.20;99.90;;;;;;4116163;28;20194;-92
2021/06/12 06:14:21;;;;;;;23.15;16.10;;;19.20;99.90;;;;;;4116397;28;20178;-89
2021/06/12 06:16:22;;;;;;;21.15;14.75;;;19.30;99.90;;;;;;4132265;28;20691;-89
2021/06/12 06:18:22;;;;;;;28.30;16.10;;;19.30;99.90;;;;;;4116139;28;20174;-89
2021/06/12 06:20:23;;;;;;;22.17;14.30;;;19.40;99.90;;;;;;4132188;28;20161;-89
2021/06/12 06:22:24;;;;;;;22.65;15.85;;;19.40;99.90;;;;;;4116402;28;20194;-89
2021/06/12 06:24:25;;;;;;;21.17;15.40;;;19.50;99.90;;;;;;4115909;28;20173;-92
2021/06/12 06:26:26;;;;;;;26.08;16.48;;;19.50;99.90;;;;;;4131810;28;20185;-89
2021/06/12 06:28:27;;;;;;;26.67;17.27;;;19.60;99.90;;;;;;4116010;28;20185;-88
2021/06/12 06:30:28;;;;;;;25.20;15.55;;;19.50;99.90;;;;;;4115817;28;20313;-88
2021/06/12 06:32:29;;;;;;;25.33;15.52;;;19.60;99.90;;;;;;4115836;28;20701;-92
2021/06/12 06:34:30;;;;;;;19.75;14.68;;;19.70;99.90;;;;;;4115906;28;20202;-90
2021/06/12 06:36:30;;;;;;;20.90;16.38;;;19.60;99.90;;;;;;4116016;28;20174;-92
2021/06/12 06:38:31;;;;;;;23.10;16.35;;;19.50;99.90;;;;;;4115557;28;20186;-88
2021/06/12 06:40:32;;;;;;;19.67;16.60;;;19.50;99.90;;;;;;4131854;28;20192;-89
2021/06/12 06:42:33;;;;;;;26.13;16.67;;;19.50;99.90;;;;;;4115906;28;20194;-88
2021/06/12 06:44:36;;;;;;;20.80;15.85;;;19.20;99.90;;;;;;4131734;28;20165;-92
2021/06/12 06:46:37;;;;;;;20.00;16.13;;;19.30;99.90;;;;;;4115720;28;20582;-90
2021/06/12 06:48:38;;;;;;;23.98;16.63;;;19.20;99.90;;;;;;4132098;28;20169;-90
2021/06/12 06:50:40;;;;;;;30.17;16.83;;;19.20;99.90;;;;;;4115584;28;20209;-90
2021/06/12 06:52:41;;;;;;;21.35;16.58;;;19.20;99.90;;;;;;4115489;28;20681;-89
2021/06/12 06:54:42;;;;;;;22.33;16.90;;;19.10;99.90;;;;;;4131774;28;20201;-89
2021/06/12 06:56:43;;;;;;;23.20;16.45;;;19.20;99.90;;;;;;4115656;28;20173;-89
2021/06/12 06:58:44;;;;;;;22.15;16.30;;;19.10;99.90;;;;;;4131964;28;20182;-88
2021/06/12 07:00:44;;;;;;;26.73;17.42;;;19.10;99.90;;;;;;4117323;28;20202;-89
2021/06/12 07:02:45;;;;;;;26.95;17.45;;;19.20;99.90;;;;;;4137369;28;20273;-92
2021/06/12 07:04:46;;;;;;;24.38;17.98;;;19.10;99.90;;;;;;4118954;28;20179;-89
2021/06/12 07:06:47;;;;;;;24.52;18.23;;;19.10;99.90;;;;;;4119080;28;20182;-89
2021/06/12 07:08:48;;;;;;;23.98;18.08;;;19.00;99.90;;;;;;4118904;28;20677;-89
2021/06/12 07:10:49;;;;;;;28.27;18.65;;;19.00;99.90;;;;;;4134701;28;20284;-93
2021/06/12 07:12:50;;;;;;;24.70;18.48;;;19.10;99.90;;;;;;4119301;28;20206;-92
2021/06/12 07:14:51;;;;;;;28.88;19.17;;;19.00;99.90;;;;;;4118861;28;20170;-93
2021/06/12 07:16:52;;;;;;;30.60;19.10;;;18.90;99.90;;;;;;4118571;28;20177;-90
2021/06/12 07:18:54;;;;;;;27.27;18.95;;;19.00;99.90;;;;;;4134544;28;20181;-89
2021/06/12 07:20:55;;;;;;;29.85;18.98;;;19.10;99.90;;;;;;4118416;28;20178;-89
2021/06/12 07:22:56;;;;;;;26.30;19.85;;;19.10;99.90;;;;;;4118522;28;20237;-93
2021/06/12 07:24:57;;;;;;;26.52;19.30;;;19.00;99.90;;;;;;4134397;28;20170;-89
2021/06/12 07:26:58;;;;;;;26.33;19.15;;;19.10;99.90;;;;;;4118546;28;20178;-88
2021/06/12 07:28:59;;;;;;;27.17;17.90;;;19.10;99.90;;;;;;4118546;28;20261;-93
2021/06/12 07:31:00;;;;;;;24.65;18.15;;;19.20;99.90;;;;;;4134228;28;20617;-92
2021/06/12 07:33:01;;;;;;;25.67;17.00;;;19.30;99.90;;;;;;4118192;28;20187;-88
2021/06/12 07:35:02;;;;;;;24.27;18.48;;;19.40;99.90;;;;;;4118284;28;20200;-92
2021/06/12 07:37:03;;;;;;;22.38;16.85;;;19.50;99.90;;;;;;4118221;28;20217;-93
2021/06/12 07:39:06;;;;;;;22.67;17.30;;;19.70;99.90;;;;;;4118214;28;20281;-89
2021/06/12 07:41:07;;;;;;;22.10;17.65;;;19.90;99.90;;;;;;4118284;28;20174;-92
2021/06/12 07:43:07;;;;;;;21.08;17.48;;;19.90;99.90;;;;;;4118058;28;20198;-89
2021/06/12 07:45:10;;;;;;;22.30;17.58;;;20.00;99.90;;;;;;4134099;28;20220;-91
2021/06/12 07:47:11;;;;;;;25.90;18.35;;;20.00;99.90;;;;;;4132648;23;20404;-87
2021/06/12 07:49:12;;;;;;;24.55;18.30;;;19.90;99.90;;;;;;4117962;28;20167;-86
2021/06/12 07:51:13;;;;;;;23.73;17.45;;;19.90;99.90;;;;;;4118130;28;20590;-88
2021/06/12 07:53:14;;;;;;;21.20;17.27;;;19.90;99.90;;;;;;4102318;28;20190;-88
2021/06/12 07:55:15;;;;;;;19.67;16.80;;;19.90;99.90;;;;;;4117904;28;20224;-87
2021/06/12 07:57:16;;;;;;;20.73;16.23;;;19.80;99.90;;;;;;4101834;28;20623;-88
2021/06/12 07:59:16;;;;;;;18.85;16.20;;;19.70;99.90;;;;;;4117971;28;20237;-87
2021/06/12 08:01:17;;;;;;;20.13;16.58;;;19.90;99.90;;;;;;4117572;28;20182;-87
2021/06/12 08:03:18;;;;;;;27.15;17.48;;;20.10;99.90;;;;;;4101880;28;20674;-88
2021/06/12 08:05:19;;;;;;;22.92;16.35;;;20.10;99.90;;;;;;4117720;28;20236;-87
2021/06/12 08:07:20;;;;;;;22.15;17.50;;;20.20;99.90;;;;;;4101516;28;20183;-88
2021/06/12 08:09:20;;;;;;;22.02;16.25;;;20.20;99.90;;;;;;4101591;28;20167;-87
2021/06/12 08:11:21;;;;;;;18.52;15.65;;;20.10;99.90;;;;;;4101285;28;20218;-87
2021/06/12 08:13:22;;;;;;;25.73;17.65;;;20.00;99.90;;;;;;4101372;29;20163;-87
2021/06/12 08:15:24;;;;;;;21.00;16.92;;;20.20;99.90;;;;;;4101424;29;20178;-87
2021/06/12 08:17:25;;;;;;;19.80;16.83;;;20.20;99.90;;;;;;4117706;28;20177;-88
2021/06/12 08:19:25;;;;;;;20.67;17.30;;;20.20;99.90;;;;;;4101377;29;20213;-87
2021/06/12 08:21:26;;;;;;;22.83;17.40;;;20.20;99.90;;;;;;4117392;28;20658;-87
2021/06/12 08:23:27;;;;;;;24.00;17.20;;;20.20;99.90;;;;;;4117532;28;20186;-86
2021/06/12 08:25:29;;;;;;;21.23;16.60;;;20.00;99.90;;;;;;4101663;28;20710;-87
2021/06/12 08:27:30;;;;;;;23.52;17.17;;;20.00;99.90;;;;;;4117197;28;20178;-88
2021/06/12 08:29:31;;;;;;;21.85;16.35;;;20.00;99.90;;;;;;4117363;28;20170;-87
2021/06/12 08:31:35;;;;;;;20.55;17.45;;;20.10;99.90;;;;;;4117225;28;20548;-87
2021/06/12 08:33:37;;;;;;;21.08;16.92;;;20.00;99.90;;;;;;4101301;28;20171;-88
2021/06/12 08:35:39;;;;;;;19.77;16.80;;;20.00;99.90;;;;;;4101188;28;20695;-88
2021/06/12 08:37:39;;;;;;;20.52;16.35;;;19.90;99.90;;;;;;4117230;28;20241;-87
2021/06/12 08:39:40;;;;;;;23.38;18.02;;;20.20;99.90;;;;;;4117126;28;20197;-87
2021/06/12 08:41:41;;;;;;;21.38;16.55;;;20.40;99.90;;;;;;4101013;28;20194;-87
2021/06/12 08:43:42;;;;;;;18.02;15.90;;;20.50;99.90;;;;;;4101158;29;20230;-87
2021/06/12 08:45:44;;;;;;;21.05;16.05;;;20.60;99.90;;;;;;4117054;28;20226;-88
2021/06/12 08:47:45;;;;;;;20.45;16.30;;;20.60;99.90;;;;;;4101214;28;20232;-87
2021/06/12 08:49:46;;;;;;;21.30;16.45;;;20.70;99.90;;;;;;4101135;28;20210;-89
2021/06/12 08:51:47;;;;;;;18.60;15.80;;;20.90;99.90;;;;;;4116960;28;20229;-87
2021/06/12 08:53:50;;;;;;;22.25;17.30;;;20.80;99.90;;;;;;4117264;28;20171;-86
2021/06/12 08:55:50;;;;;;;21.77;16.98;;;20.70;99.90;;;;;;4101067;28;20301;-87
2021/06/12 08:57:51;;;;;;;21.58;16.85;;;20.70;99.90;;;;;;4116617;28;20167;-86
2021/06/12 08:59:52;;;;;;;24.17;18.08;;;20.90;99.90;;;;;;4100789;29;20631;-86
2021/06/12 09:01:53;;;;;;;22.30;17.65;;;21.00;99.90;;;;;;4116715;28;20682;-88
2021/06/12 09:03:53;;;;;;;21.08;17.50;;;21.20;99.90;;;;;;4100909;28;20179;-87
2021/06/12 09:05:57;;;;;;;26.50;17.75;;;20.70;99.90;;;;;;4116775;28;20170;-87
2021/06/12 09:08:06;;;;;;;23.08;18.30;;;20.30;99.90;;;;;;4116832;28;20175;-88
2021/06/12 09:10:07;;;;;;;21.75;17.50;;;20.30;99.90;;;;;;4100834;29;20174;-87
2021/06/12 09:12:08;;;;;;;21.05;17.75;;;20.40;99.90;;;;;;4116407;28;20623;-87
2021/06/12 09:14:10;;;;;;;18.73;16.58;;;20.70;99.90;;;;;;4100533;28;20266;-88
2021/06/12 09:16:31;;;;;;;22.55;17.13;;;21.00;99.90;;;;;;4116399;28;20186;-87
2021/06/12 09:18:40;;;;;;;20.33;17.23;;;21.40;99.90;;;;;;4100567;29;20173;-87
2021/06/12 09:20:43;;;;;;;21.33;17.35;;;21.40;99.90;;;;;;4100374;28;20174;-86
2021/06/12 09:22:45;;;;;;;21.80;17.60;;;21.40;99.90;;;;;;4100304;28;20186;-87
2021/06/12 09:24:50;;;;;;;23.00;17.65;;;21.00;99.90;;;;;;4099608;28;20182;-87
2021/06/12 09:26:58;;;;;;;25.08;18.70;;;21.10;99.90;;;;;;4100410;28;20623;-87
2021/06/12 09:29:04;;;;;;;23.55;19.05;;;21.10;99.90;;;;;;4100268;28;20178;-88
2021/06/12 09:31:22;;;;;;;21.55;16.92;;;20.90;99.90;;;;;;4116228;28;20221;-87
2021/06/12 09:33:35;;;;;;;20.05;17.02;;;21.10;99.90;;;;;;4100543;29;20186;-87
2021/06/12 09:35:45;;;;;;;22.45;17.13;;;21.20;99.90;;;;;;4100435;28;20193;-86
2021/06/12 09:37:47;;;;;;;19.50;16.75;;;21.50;99.90;;;;;;4100344;29;20247;-87
2021/06/12 09:39:59;;;;;;;18.95;16.33;;;21.60;99.90;;;;;;4100353;28;20183;-87
2021/06/12 09:42:00;;;;;;;18.95;15.50;;;21.80;99.90;;;;;;4100523;28;20198;-86
2021/06/12 09:44:01;;;;;;;19.05;15.88;;;21.90;99.90;;;;;;4116538;28;20205;-88
2021/06/12 09:46:02;;;;;;;20.23;16.50;;;22.10;99.90;;;;;;4099946;28;20179;-88
2021/06/12 09:48:10;;;;;;;19.50;16.90;;;22.00;99.90;;;;;;4116103;28;20265;-87
2021/06/12 09:50:12;;;;;;;17.73;15.88;;;22.10;99.90;;;;;;4099897;29;20177;-88
2021/06/12 09:52:16;;;;;;;21.30;17.38;;;22.00;99.90;;;;;;4099885;28;20205;-86
2021/06/12 09:54:17;;;;;;;17.60;15.73;;;21.90;99.90;;;;;;4100071;28;20190;-87
2021/06/12 09:56:19;;;;;;;19.23;16.42;;;21.80;99.90;;;;;;4116201;28;20174;-88
2021/06/12 09:58:28;;;;;;;16.90;14.80;;;21.90;99.90;;;;;;4100053;28;20175;-84
2021/06/12 10:00:41;;;;;;;18.23;15.40;;;22.00;99.90;;;;;;4099512;28;20202;-87
2021/06/12 10:02:47;;;;;;;16.90;15.10;;;21.90;99.90;;;;;;4099928;29;20266;-88
2021/06/12 10:04:58;;;;;;;18.10;15.13;;;22.20;99.90;;;;;;4115971;28;20209;-88
2021/06/12 10:06:59;;;;;;;17.35;14.98;;;22.60;99.90;;;;;;4099875;29;20189;-88
2021/06/12 10:09:02;;;;;;;16.40;14.73;;;22.90;99.90;;;;;;4115910;28;20591;-86
2021/06/12 10:11:03;;;;;;;19.95;15.50;;;23.10;99.90;;;;;;4115708;28;20769;-87
2021/06/12 10:13:05;;;;;;;22.95;15.85;;;22.70;99.90;;;;;;4115587;28;20670;-88
2021/06/12 10:15:10;;;;;;;16.08;14.48;;;23.00;99.90;;;;;;4115817;28;20186;-87
2021/06/12 10:17:12;;;;;;;16.27;14.00;;;23.50;99.90;;;;;;4116827;28;20229;-87
2021/06/12 10:19:19;;;;;;;16.30;13.25;;;23.80;99.90;;;;;;4099638;29;20174;-88
2021/06/12 10:21:20;;;;;;;16.52;14.82;;;24.00;99.90;;;;;;4115450;28;20181;-87
2021/06/12 10:23:20;;;;;;;19.40;14.43;;;23.80;99.90;;;;;;4115771;28;20171;-87
2021/06/12 10:25:23;;;;;;;16.73;14.30;;;23.20;99.90;;;;;;4115605;28;20237;-86